Hardaway, Alabama
Current Conditions -  °F | °C
As of 2:53 PM on Thursday 18 Dec 2014 (Local Time) from KTOI Reporting Station
Broken Clouds Broken Clouds  
Wind Chill: 16°   Ceiling: 4600
Heat Index: 16°   Visibility: 10mi
Dew Point: -2°   Wind: 3mph
Humidity: 30%   Direction: 240°WSW
Pressure: 30.12"   Gusts: NA
Location:  32.29°N, 85.85°W
Report Text: KTOI 182053Z AUTO 24003KT 10SM BKN046 16/M02 A3012 RMK AO2 SLP200 T01611017 55013
Loading
Personal Weather Stations






























Interactive Weather Map New forecast layout! Learn more

10-Day Weather Forecast

Advertisements
Track Severe Weather on mobile